createdAt,value
2023-01-30T00:01:55.403Z,21.90
2023-01-30T00:04:42.276Z,22.80
2023-01-30T00:07:08.901Z,16.10
2023-01-30T00:09:35.618Z,21.90
2023-01-30T00:12:09.310Z,18.33
2023-01-30T00:14:35.969Z,22.70
2023-01-30T00:17:09.241Z,23.17
2023-01-30T00:19:35.871Z,20.33
2023-01-30T00:22:09.201Z,20.73
2023-01-30T00:24:36.003Z,24.20
2023-01-30T00:27:09.230Z,21.20
2023-01-30T00:29:35.947Z,22.37
2023-01-30T00:32:09.303Z,23.47
2023-01-30T00:34:36.112Z,22.27
2023-01-30T00:37:09.277Z,22.73
2023-01-30T00:39:42.188Z,21.73
2023-01-30T00:42:28.567Z,21.93
2023-01-30T00:45:27.354Z,25.40
2023-01-30T00:47:53.977Z,23.77
2023-01-30T00:50:27.196Z,20.40
2023-01-30T00:52:53.897Z,21.90
2023-01-30T00:55:27.438Z,19.63
2023-01-30T00:57:54.093Z,25.03
2023-01-30T01:00:27.268Z,21.43
2023-01-30T01:02:53.961Z,25.10
2023-01-30T01:05:42.240Z,23.77
2023-01-30T01:08:08.888Z,24.37
2023-01-30T01:10:42.291Z,25.33
2023-01-30T01:13:10.679Z,20.07
2023-01-30T01:15:44.239Z,21.67
2023-01-30T01:18:10.871Z,24.50
2023-01-30T01:20:44.287Z,26.27
2023-01-30T01:23:18.199Z,22.80
2023-01-30T01:25:51.233Z,24.27
2023-01-30T01:28:28.224Z,23.93
2023-01-30T01:30:54.967Z,24.00
2023-01-30T01:33:28.285Z,24.00
2023-01-30T01:35:58.055Z,24.57
2023-01-30T01:38:31.196Z,21.90
2023-01-30T01:41:06.131Z,25.23
2023-01-30T01:43:45.309Z,24.33
2023-01-30T01:46:29.256Z,27.00
2023-01-30T01:49:07.248Z,27.40
2023-01-30T01:51:47.260Z,23.77
2023-01-30T01:54:30.354Z,24.27
2023-01-30T01:57:03.245Z,25.37
2023-01-30T01:59:38.010Z,24.60
2023-01-30T02:02:16.330Z,25.97
2023-01-30T02:05:13.470Z,22.40
2023-01-30T02:07:46.223Z,27.30
2023-01-30T02:10:26.260Z,25.63
2023-01-30T02:12:59.245Z,25.50
2023-01-30T02:15:25.991Z,23.53
2023-01-30T02:17:59.393Z,22.73
2023-01-30T02:20:52.269Z,20.87
2023-01-30T02:23:42.419Z,24.50
2023-01-30T02:26:36.445Z,26.30
2023-01-30T02:29:11.967Z,25.17
2023-01-30T02:31:50.263Z,20.50
2023-01-30T02:34:42.314Z,21.57
2023-01-30T02:37:26.096Z,23.17
2023-01-30T02:40:21.247Z,20.93
2023-01-30T02:43:05.702Z,17.90
2023-01-30T02:45:54.481Z,23.10
2023-01-30T02:48:49.268Z,21.77
2023-01-30T02:51:29.307Z,23.20
2023-01-30T02:54:04.411Z,22.90
2023-01-30T02:56:47.083Z,24.07
2023-01-30T02:59:24.315Z,19.07
2023-01-30T03:01:56.803Z,18.98
2023-01-30T03:05:27.475Z,22.27
2023-01-30T03:08:03.902Z,20.57
2023-01-30T03:10:58.276Z,19.87
2023-01-30T03:13:34.233Z,20.57
2023-01-30T03:16:16.349Z,21.07
2023-01-30T03:18:45.204Z,16.77
2023-01-30T03:21:19.329Z,22.57
2023-01-30T03:23:55.390Z,20.90
2023-01-30T03:26:39.264Z,19.97
2023-01-30T03:29:09.025Z,19.97
2023-01-30T03:31:42.361Z,16.77
2023-01-30T03:34:15.305Z,19.10
2023-01-30T03:36:42.036Z,19.17
2023-01-30T03:39:15.283Z,19.27
2023-01-30T03:41:42.411Z,15.93
2023-01-30T03:44:15.317Z,20.23
2023-01-30T03:46:42.120Z,15.40
2023-01-30T03:49:08.789Z,17.57
2023-01-30T03:51:42.287Z,15.80
2023-01-30T03:54:09.092Z,16.88
2023-01-30T03:56:42.278Z,16.67
2023-01-30T03:59:15.286Z,18.17
2023-01-30T04:01:41.968Z,17.05
2023-01-30T04:04:15.304Z,16.83
2023-01-30T04:06:48.300Z,17.75
2023-01-30T04:09:15.031Z,15.57
2023-01-30T04:11:48.275Z,15.68
2023-01-30T04:14:14.929Z,16.33
2023-01-30T04:16:48.330Z,16.48
2023-01-30T04:19:15.043Z,15.83
2023-01-30T04:21:48.294Z,13.93
2023-01-30T04:24:15.084Z,12.60
2023-01-30T04:26:48.264Z,11.35
2023-01-30T04:29:14.865Z,10.50
2023-01-30T04:31:48.346Z,10.30
2023-01-30T04:34:14.973Z,9.95
2023-01-30T04:36:48.380Z,9.50
2023-01-30T04:39:15.047Z,8.82
2023-01-30T04:41:41.624Z,9.50
2023-01-30T04:44:14.303Z,8.77
2023-01-30T04:46:40.965Z,8.15
2023-01-30T04:49:16.380Z,7.65
2023-01-30T04:51:43.049Z,7.63
2023-01-30T04:54:16.429Z,6.30
2023-01-30T04:56:43.084Z,5.97
2023-01-30T04:59:16.304Z,6.72
2023-01-30T05:01:49.377Z,5.68
2023-01-30T05:04:16.055Z,5.80
2023-01-30T05:06:49.284Z,5.25
2023-01-30T05:09:29.297Z,6.05
2023-01-30T05:12:02.358Z,5.68
2023-01-30T05:14:35.412Z,4.93
2023-01-30T05:17:08.456Z,5.43
2023-01-30T05:19:42.314Z,5.03
2023-01-30T05:22:15.389Z,5.00
2023-01-30T05:24:42.033Z,4.65
2023-01-30T05:27:15.318Z,5.82
2023-01-30T05:29:41.987Z,4.80
2023-01-30T05:32:19.358Z,3.97
2023-01-30T05:34:46.191Z,4.10
2023-01-30T05:37:19.296Z,3.55
2023-01-30T05:39:45.917Z,2.63
2023-01-30T05:42:19.316Z,2.80
2023-01-30T05:44:46.258Z,2.70
2023-01-30T05:47:12.918Z,2.08
2023-01-30T05:49:46.421Z,1.90
2023-01-30T05:52:13.133Z,2.25
2023-01-30T05:54:46.339Z,2.00
2023-01-30T05:57:13.326Z,2.45
2023-01-30T05:59:46.403Z,2.40
2023-01-30T06:02:13.005Z,2.30
2023-01-30T06:04:46.419Z,1.83
2023-01-30T06:07:19.696Z,2.70
2023-01-30T06:09:46.330Z,2.25
2023-01-30T06:12:19.404Z,3.00
2023-01-30T06:14:52.332Z,2.90
2023-01-30T06:17:25.381Z,2.67
2023-01-30T06:19:52.012Z,2.67
2023-01-30T06:22:25.331Z,3.13
2023-01-30T06:24:51.985Z,2.95
2023-01-30T06:27:26.397Z,3.53
2023-01-30T06:29:53.021Z,3.08
2023-01-30T06:32:26.374Z,3.75
2023-01-30T06:34:52.992Z,3.05
2023-01-30T06:37:26.358Z,3.75
2023-01-30T06:39:52.994Z,4.32
2023-01-30T06:42:26.325Z,3.22
2023-01-30T06:44:59.355Z,2.90
2023-01-30T06:47:32.342Z,3.22
2023-01-30T06:49:58.938Z,3.55
2023-01-30T06:52:32.406Z,2.83
2023-01-30T06:55:05.555Z,3.53
2023-01-30T06:57:32.189Z,2.95
2023-01-30T07:00:05.414Z,4.07
2023-01-30T07:02:35.416Z,3.42
2023-01-30T07:05:09.377Z,3.10
2023-01-30T07:07:43.430Z,3.63
2023-01-30T07:10:18.472Z,3.40
2023-01-30T07:12:46.528Z,3.10
2023-01-30T07:15:20.904Z,3.10
2023-01-30T07:17:47.693Z,3.40
2023-01-30T07:20:21.390Z,2.93
2023-01-30T07:22:59.374Z,4.10
2023-01-30T07:25:27.591Z,3.07
2023-01-30T07:28:05.562Z,3.40
2023-01-30T07:30:36.045Z,3.13
2023-01-30T07:33:12.381Z,3.40
2023-01-30T07:35:39.295Z,3.40
2023-01-30T07:38:12.393Z,4.37
2023-01-30T07:40:38.927Z,3.40
2023-01-30T07:43:08.668Z,3.23
2023-01-30T07:45:49.402Z,3.60
2023-01-30T07:48:25.372Z,3.33
2023-01-30T07:51:03.462Z,3.40
2023-01-30T07:53:36.453Z,3.00
2023-01-30T07:56:10.764Z,3.50
2023-01-30T07:58:44.377Z,3.53
2023-01-30T08:01:17.498Z,3.50
2023-01-30T08:03:46.011Z,2.93
2023-01-30T08:06:20.428Z,3.20
2023-01-30T08:08:53.760Z,3.53
2023-01-30T08:11:27.401Z,3.77
2023-01-30T08:14:00.397Z,2.83
2023-01-30T08:16:33.401Z,3.20
2023-01-30T08:19:06.549Z,3.30
2023-01-30T08:21:39.422Z,3.60
2023-01-30T08:24:06.500Z,3.50
2023-01-30T08:26:39.429Z,3.57
2023-01-30T08:29:06.493Z,3.00
2023-01-30T08:31:39.593Z,3.83
2023-01-30T08:34:12.481Z,4.70
2023-01-30T08:36:45.449Z,2.97
2023-01-30T08:39:12.387Z,3.57
2023-01-30T08:41:45.437Z,2.93
2023-01-30T08:44:14.600Z,3.50
2023-01-30T08:46:47.414Z,4.27
2023-01-30T08:49:20.441Z,3.67
2023-01-30T08:51:47.071Z,3.47
2023-01-30T08:54:20.411Z,4.10
2023-01-30T08:56:47.003Z,3.80
2023-01-30T08:59:20.412Z,3.73
2023-01-30T09:01:47.064Z,3.67
2023-01-30T09:04:20.433Z,4.47
2023-01-30T09:06:53.769Z,3.40
2023-01-30T09:09:26.377Z,4.82
2023-01-30T09:11:52.940Z,3.88
2023-01-30T09:14:26.447Z,3.93
2023-01-30T09:16:56.397Z,3.37
2023-01-30T09:19:34.508Z,4.20
2023-01-30T09:22:07.416Z,3.20
2023-01-30T09:24:34.242Z,3.47
2023-01-30T09:27:07.445Z,3.67
2023-01-30T09:29:34.215Z,4.18
2023-01-30T09:32:07.497Z,3.50
2023-01-30T09:34:34.251Z,3.10
2023-01-30T09:37:08.447Z,3.72
2023-01-30T09:39:41.417Z,3.53
2023-01-30T09:42:31.442Z,3.20
2023-01-30T09:45:22.864Z,3.35
2023-01-30T09:48:02.696Z,3.95
2023-01-30T09:50:54.500Z,3.20
2023-01-30T09:53:40.515Z,3.53
2023-01-30T09:56:07.726Z,3.42
2023-01-30T09:59:09.450Z,3.95
2023-01-30T10:02:00.231Z,2.92
2023-01-30T10:05:00.638Z,3.47
2023-01-30T10:07:45.826Z,2.90
2023-01-30T10:10:38.458Z,3.37
2023-01-30T10:13:23.370Z,3.47
2023-01-30T10:16:32.421Z,4.20
2023-01-30T10:19:36.889Z,3.83
2023-01-30T10:22:34.386Z,4.00
2023-01-30T10:25:38.499Z,3.55
2023-01-30T10:28:37.753Z,3.77
2023-01-30T10:31:15.643Z,3.20
2023-01-30T10:33:50.423Z,4.22
2023-01-30T10:36:34.415Z,3.10
2023-01-30T10:39:04.671Z,3.53
2023-01-30T10:41:41.462Z,3.13
2023-01-30T10:44:13.873Z,3.03
2023-01-30T10:46:53.606Z,3.90
2023-01-30T10:49:27.619Z,2.72
2023-01-30T10:52:33.495Z,3.20
2023-01-30T10:55:03.394Z,3.28
2023-01-30T10:58:04.559Z,2.67
2023-01-30T11:00:40.496Z,2.83
2023-01-30T11:03:42.547Z,2.70
2023-01-30T11:06:25.506Z,2.85
2023-01-30T11:09:00.832Z,3.20
2023-01-30T11:11:42.440Z,4.32
2023-01-30T11:14:12.029Z,3.15
2023-01-30T11:16:50.530Z,3.17
2023-01-30T11:19:22.237Z,3.85
2023-01-30T11:22:10.544Z,3.05
2023-01-30T11:24:44.061Z,3.55
2023-01-30T11:27:38.529Z,3.03
2023-01-30T11:30:17.777Z,2.72
2023-01-30T11:32:54.467Z,3.28
2023-01-30T11:35:26.641Z,3.35
2023-01-30T11:38:00.523Z,2.28
2023-01-30T11:40:31.208Z,2.70
2023-01-30T11:43:12.559Z,4.05
2023-01-30T11:45:47.205Z,4.75
2023-01-30T11:48:33.735Z,3.22
2023-01-30T11:51:13.133Z,2.78
2023-01-30T11:53:53.509Z,4.30
2023-01-30T11:56:42.861Z,3.25
2023-01-30T11:59:25.551Z,4.03
2023-01-30T12:02:01.693Z,3.30
2023-01-30T12:04:35.538Z,3.42
2023-01-30T12:07:22.576Z,3.90
2023-01-30T12:09:57.576Z,4.20
2023-01-30T12:12:32.333Z,3.40
2023-01-30T12:15:34.635Z,3.55
2023-01-30T12:18:18.740Z,3.42
2023-01-30T12:21:24.584Z,3.67
2023-01-30T12:24:12.805Z,3.67
2023-01-30T12:27:06.571Z,3.67
2023-01-30T12:29:46.116Z,3.28
2023-01-30T12:32:26.579Z,3.72
2023-01-30T12:34:59.562Z,3.95
2023-01-30T12:38:06.491Z,3.17
2023-01-30T12:40:53.672Z,3.88
2023-01-30T12:43:41.573Z,3.85
2023-01-30T12:46:35.526Z,3.22
2023-01-30T12:49:30.484Z,2.83
2023-01-30T12:52:05.921Z,4.25
2023-01-30T12:55:06.720Z,3.67
2023-01-30T12:57:39.060Z,3.42
2023-01-30T13:01:06.552Z,4.50
2023-01-30T13:04:02.509Z,3.08
2023-01-30T13:06:38.544Z,3.72
2023-01-30T13:09:40.521Z,4.32
2023-01-30T13:12:23.547Z,3.65
2023-01-30T13:15:02.682Z,3.80
2023-01-30T13:17:44.499Z,3.53
2023-01-30T13:20:20.724Z,3.60
2023-01-30T13:23:01.546Z,3.35
2023-01-30T13:25:46.494Z,3.05
2023-01-30T13:28:26.590Z,3.67
2023-01-30T13:30:56.051Z,2.70
2023-01-30T13:33:35.597Z,3.50
2023-01-30T13:36:17.597Z,2.83
2023-01-30T13:39:19.576Z,2.30
2023-01-30T13:41:53.183Z,2.75
2023-01-30T13:44:43.647Z,2.90
2023-01-30T13:47:24.760Z,3.05
2023-01-30T13:50:12.585Z,4.45
2023-01-30T13:52:57.336Z,3.30
2023-01-30T13:55:52.574Z,3.22
2023-01-30T13:58:48.513Z,3.35
2023-01-30T14:01:21.644Z,3.50
2023-01-30T14:03:48.321Z,4.00
2023-01-30T14:06:40.621Z,3.65
2023-01-30T14:09:26.707Z,3.72
2023-01-30T14:12:08.561Z,3.08
2023-01-30T14:14:40.796Z,3.40
2023-01-30T14:17:20.531Z,3.03
2023-01-30T14:20:02.537Z,3.83
2023-01-30T14:22:41.671Z,3.35
2023-01-30T14:25:29.736Z,4.07
2023-01-30T14:28:23.592Z,3.90
2023-01-30T14:30:52.932Z,4.25
2023-01-30T14:33:25.561Z,4.30
2023-01-30T14:36:07.605Z,4.82
2023-01-30T14:38:39.678Z,4.30
2023-01-30T14:41:13.608Z,3.47
2023-01-30T14:43:52.619Z,3.75
2023-01-30T14:46:26.618Z,4.07
2023-01-30T14:49:11.085Z,3.90
2023-01-30T14:51:47.660Z,4.18
2023-01-30T14:54:27.602Z,4.13
2023-01-30T14:57:06.232Z,3.38
2023-01-30T15:00:16.163Z,4.40
2023-01-30T15:02:51.891Z,3.95
2023-01-30T15:05:27.609Z,3.80
2023-01-30T15:08:14.508Z,4.10
2023-01-30T15:11:08.683Z,4.05
2023-01-30T15:13:52.709Z,3.97
2023-01-30T15:16:58.655Z,3.95
2023-01-30T15:20:05.264Z,3.80
2023-01-30T15:23:06.723Z,3.42
2023-01-30T15:25:54.902Z,3.45
2023-01-30T15:28:50.675Z,3.67
2023-01-30T15:31:23.237Z,3.50
2023-01-30T15:33:58.673Z,4.03
2023-01-30T15:36:28.216Z,3.58
2023-01-30T15:39:28.639Z,3.80
2023-01-30T15:42:06.227Z,3.22
2023-01-30T15:45:04.634Z,3.28
2023-01-30T15:48:10.608Z,3.85
2023-01-30T15:50:44.625Z,3.42
2023-01-30T15:53:15.919Z,3.55
2023-01-30T15:55:50.583Z,3.72
2023-01-30T15:58:20.729Z,4.20
2023-01-30T16:00:56.669Z,3.10
2023-01-30T16:03:27.319Z,3.95
2023-01-30T16:06:02.618Z,2.75
2023-01-30T16:08:40.740Z,8.82
2023-01-30T16:11:13.905Z,3.78
2023-01-30T16:13:40.835Z,3.92
2023-01-30T16:16:21.772Z,3.50
2023-01-30T16:18:55.700Z,3.58
2023-01-30T16:21:32.624Z,3.72
2023-01-30T16:24:14.100Z,3.67
2023-01-30T16:26:55.696Z,4.20
2023-01-30T16:29:25.723Z,3.65
2023-01-30T16:32:00.793Z,3.95
2023-01-30T16:34:33.489Z,4.15
2023-01-30T16:37:24.754Z,4.22
2023-01-30T16:40:13.948Z,4.13
2023-01-30T16:42:47.744Z,4.15
2023-01-30T16:45:33.183Z,4.03
2023-01-30T16:48:30.690Z,4.00
2023-01-30T16:51:00.394Z,4.47
2023-01-30T16:53:36.632Z,4.40
2023-01-30T16:56:16.737Z,5.00
2023-01-30T16:59:08.732Z,3.47
2023-01-30T17:01:47.993Z,3.90
2023-01-30T17:04:27.631Z,5.38
2023-01-30T17:07:17.610Z,4.78
2023-01-30T17:09:55.711Z,4.00
2023-01-30T17:12:29.969Z,3.70
2023-01-30T17:15:26.884Z,4.25
2023-01-30T17:17:53.739Z,3.38
2023-01-30T17:20:27.610Z,4.05
2023-01-30T17:23:00.591Z,3.88
2023-01-30T17:25:39.687Z,4.65
2023-01-30T17:28:07.748Z,3.50
2023-01-30T17:30:41.915Z,4.13
2023-01-30T17:33:15.734Z,5.00
2023-01-30T17:35:48.975Z,3.60
2023-01-30T17:38:15.759Z,3.90
2023-01-30T17:40:49.975Z,3.97
2023-01-30T17:43:24.004Z,4.43
2023-01-30T17:45:51.427Z,3.90
2023-01-30T17:48:24.642Z,4.00
2023-01-30T17:50:51.402Z,4.18
2023-01-30T17:53:24.741Z,4.43
2023-01-30T17:55:51.517Z,3.73
2023-01-30T17:58:25.649Z,3.55
2023-01-30T18:00:53.095Z,3.13
2023-01-30T18:03:26.661Z,3.78
2023-01-30T18:05:53.389Z,4.03
2023-01-30T18:08:33.716Z,3.27
2023-01-30T18:11:06.650Z,3.78
2023-01-30T18:13:39.764Z,3.67
2023-01-30T18:16:13.843Z,4.20
2023-01-30T18:18:46.702Z,3.97
2023-01-30T18:21:19.818Z,4.23
2023-01-30T18:23:52.990Z,4.03
2023-01-30T18:26:26.723Z,4.07
2023-01-30T18:28:54.243Z,3.80
2023-01-30T18:31:30.836Z,4.13
2023-01-30T18:33:58.234Z,3.63
2023-01-30T18:36:31.692Z,4.13
2023-01-30T18:38:58.466Z,3.93
2023-01-30T18:41:31.742Z,4.27
2023-01-30T18:44:05.095Z,5.10
2023-01-30T18:46:39.715Z,3.93
2023-01-30T18:49:08.339Z,5.53
2023-01-30T18:51:35.172Z,4.13
2023-01-30T18:54:08.677Z,4.83
2023-01-30T18:56:36.415Z,5.07
2023-01-30T18:59:11.722Z,3.43
2023-01-30T19:01:42.759Z,3.10
2023-01-30T19:04:17.699Z,3.97
2023-01-30T19:06:50.867Z,3.60
2023-01-30T19:09:30.657Z,3.13
2023-01-30T19:12:16.017Z,3.60
2023-01-30T19:14:49.706Z,4.07
2023-01-30T19:17:17.235Z,3.13
2023-01-30T19:19:44.186Z,3.80
2023-01-30T19:22:18.264Z,3.80
2023-01-30T19:24:45.028Z,3.90
2023-01-30T19:27:21.114Z,3.00
2023-01-30T19:29:56.744Z,3.60
2023-01-30T19:32:36.810Z,3.17
2023-01-30T19:35:03.929Z,3.37
2023-01-30T19:37:36.717Z,3.20
2023-01-30T19:40:08.739Z,3.93
2023-01-30T19:42:44.647Z,3.30
2023-01-30T19:45:12.207Z,3.83
2023-01-30T19:47:45.710Z,3.30
2023-01-30T19:50:12.581Z,3.63
2023-01-30T19:52:47.778Z,3.33
2023-01-30T19:55:18.716Z,3.10
2023-01-30T19:57:51.755Z,3.40
2023-01-30T20:00:19.554Z,3.10
2023-01-30T20:02:46.604Z,3.50
2023-01-30T20:05:19.697Z,3.47
2023-01-30T20:07:53.275Z,3.30
2023-01-30T20:10:32.772Z,3.17
2023-01-30T20:12:59.451Z,3.43
2023-01-30T20:15:32.717Z,4.40
2023-01-30T20:17:59.418Z,3.67
2023-01-30T20:20:32.690Z,3.53
2023-01-30T20:23:06.796Z,4.10
2023-01-30T20:25:42.776Z,3.40
2023-01-30T20:28:09.671Z,3.43
2023-01-30T20:30:45.709Z,3.40
2023-01-30T20:33:12.439Z,3.50
2023-01-30T20:35:39.129Z,4.43
2023-01-30T20:38:12.698Z,4.10
2023-01-30T20:40:45.666Z,3.50
2023-01-30T20:43:12.449Z,3.73
2023-01-30T20:45:45.780Z,4.13
2023-01-30T20:48:12.495Z,3.70
2023-01-30T20:50:45.681Z,3.97
2023-01-30T20:53:12.353Z,5.03
2023-01-30T20:55:45.836Z,3.60
2023-01-30T20:58:19.716Z,3.67
2023-01-30T21:00:52.817Z,3.97
2023-01-30T21:03:19.728Z,3.87
2023-01-30T21:06:03.858Z,3.50
2023-01-30T21:08:37.088Z,3.60
2023-01-30T21:11:16.747Z,2.80
2023-01-30T21:13:50.756Z,4.07
2023-01-30T21:16:26.581Z,4.47
2023-01-30T21:19:04.165Z,3.73
2023-01-30T21:21:48.209Z,3.37
2023-01-30T21:24:21.844Z,3.40
2023-01-30T21:26:49.025Z,3.60
2023-01-30T21:29:24.839Z,2.93
2023-01-30T21:31:58.920Z,3.57
2023-01-30T21:34:25.871Z,3.43
2023-01-30T21:37:17.840Z,3.10
2023-01-30T21:40:09.876Z,3.40
2023-01-30T21:42:55.202Z,2.80
2023-01-30T21:45:29.074Z,4.60
2023-01-30T21:47:55.799Z,3.40
2023-01-30T21:50:28.774Z,3.20
2023-01-30T21:52:56.288Z,3.57
2023-01-30T21:55:29.754Z,4.10
2023-01-30T21:58:03.854Z,3.67
2023-01-30T22:00:36.934Z,3.37
2023-01-30T22:03:09.852Z,4.27
2023-01-30T22:05:36.928Z,3.80
2023-01-30T22:08:16.765Z,4.10
2023-01-30T22:10:49.869Z,3.57
2023-01-30T22:13:16.556Z,3.47
2023-01-30T22:15:49.814Z,3.17
2023-01-30T22:18:22.804Z,4.07
2023-01-30T22:20:55.824Z,2.97
2023-01-30T22:23:22.501Z,4.37
2023-01-30T22:26:01.815Z,3.20
2023-01-30T22:28:30.612Z,3.83
2023-01-30T22:31:11.945Z,3.50
2023-01-30T22:33:45.779Z,3.33
2023-01-30T22:36:13.098Z,3.03
2023-01-30T22:38:54.748Z,3.30
2023-01-30T22:41:26.429Z,3.17
2023-01-30T22:44:05.737Z,3.27
2023-01-30T22:46:34.892Z,3.37
2023-01-30T22:49:08.827Z,3.40
2023-01-30T22:51:38.522Z,2.73
2023-01-30T22:54:07.772Z,3.20
2023-01-30T22:56:44.852Z,3.10
2023-01-30T22:59:12.078Z,3.00
2023-01-30T23:01:57.799Z,3.33
2023-01-30T23:04:24.436Z,2.53
2023-01-30T23:06:58.856Z,2.80
2023-01-30T23:09:32.145Z,2.90
2023-01-30T23:12:23.880Z,2.90
2023-01-30T23:14:56.875Z,3.03
2023-01-30T23:17:48.845Z,3.77
2023-01-30T23:20:15.936Z,2.90
2023-01-30T23:22:48.825Z,3.20
2023-01-30T23:25:22.131Z,2.73
2023-01-30T23:27:55.852Z,3.07
2023-01-30T23:30:28.928Z,2.90
2023-01-30T23:33:01.893Z,2.63
2023-01-30T23:35:28.642Z,3.13
2023-01-30T23:38:23.765Z,2.90
2023-01-30T23:40:56.937Z,2.60
2023-01-30T23:43:29.921Z,3.13
2023-01-30T23:45:58.185Z,2.63
2023-01-30T23:48:31.930Z,2.30
2023-01-30T23:51:02.325Z,2.30
2023-01-30T23:53:36.276Z,2.57
2023-01-30T23:56:03.666Z,2.63
2023-01-30T23:58:36.787Z,3.23
